メインページ
METAR-TAF:

METAR-TAF

空港 :

Massena, ニューヨーク, アメリカ合衆国

緯度: 44-56-09N, 経度: 074-50-44W, 海抜: 66m

現時点の気象観測

当レポートは46分前の18:53(UTC)に作成
南西の風 11kt、最大23ktの突風を伴う
気温 31°C
湿度 63%
気圧 1007 hPa
視程: 16.1km
高度3700ftの雲はほとんどない

METAR: KMSS 191853Z AUTO 23011G23KT 10SM FEW037 31/23 A2973 RMK AO2 SLP065 T03110228

時間: 15:39 (19:39 UTC)

予報

当レポートは2時間8分前の17:31(UTC)に作成
予報は19日の 18時(UTC)から 20日の 18時(UTC)まで有効
西/南西の風 11kt
視程: 10km
高度7000ftの雲は散在している
20日の 1000時(UTC)から
南西の風 7kt
視程: 10km
高度6000ftの雲は散在している

TAF: KMSS 191731Z 1918/2018 24011KT P6SM SCT070 FM201000 23007KT P6SM SCT060

4,000以上の空港の気象観測と天気予報(METAR報とTAF報)

利用可能な観測所は地図上に黄色い丸と赤い丸で示す。

丸の上にカーソルを重ねると観測所名を参照できる。

次にクリックすると気象観測と天気予報を参照できる。

マップの切り替え:黒色「×」印の緑ボタンをクリックして拡大、「-」印の緑ボタンをクリックして縮小、緑色の三角印をクリックして隣りの地図に切り替え


METAR-TAF: